Latest Weather Observations for Mount Nowa Nowa

IDV60801

Issued at 10:31 pm EST Tuesday 3 May 2016 (issued every 30 minutes, with the page automatically refreshed every 10 minutes)

About weather observations | Map of weather stations | Latest weather observations for VIC | Other Formats
Station Details ID: 084144 Name: MOUNT NOWA NOWA Lat: -37.69 Lon: 148.09 Height: 350.0 m
Data from the previous 72 hours. | See also: Recent months at Mount Nowa Nowa
Date/Time
EST
Temp
°C
App
Temp
°C
Dew
Point
Rel
Hum
%
Delta-T
°C
Wind Press
QNH
hPa
Press
MSL
hPa
Rain
since 9 am
mm
Dir
 
Spd
km/h
Gust
km/h
Spd
kts
Gust
kts
03/10:30pm 11.1 9.0 8.3 83 1.4 WSW 9 17 5 9 - - 0.2
03/10:00pm 11.4 9.3 8.3 81 1.6 WSW 9 30 5 16 - - 0.2
03/09:30pm 11.4 9.5 9.0 85 1.2 WSW 9 19 5 10 - - 0.2
03/09:00pm 11.3 8.8 9.6 89 0.9 WSW 13 26 7 14 - - 0.2
03/08:30pm 12.3 9.7 9.5 83 1.4 WSW 13 33 7 18 - - 0.0
03/08:00pm 17.1 14.2 6.3 49 5.4 W 11 19 6 10 - - 0.0
03/07:30pm 17.3 14.7 5.9 47 5.7 WNW 9 19 5 10 - - 0.0
03/07:00pm 17.3 14.2 5.6 46 5.8 WNW 11 19 6 10 - - 0.0
03/06:30pm 17.2 13.3 5.2 45 5.9 NW 15 28 8 15 - - 0.0
03/06:00pm 17.4 13.0 5.0 44 6.0 NW 17 32 9 17 - - 0.0
03/05:30pm 17.7 13.0 5.0 43 6.2 NW 19 32 10 17 - - 0.0
03/05:00pm 17.8 13.5 5.1 43 6.2 NW 17 33 9 18 - - 0.0
03/04:30pm 18.6 13.3 5.1 41 6.7 NW 22 44 12 24 - - 0.0
03/04:00pm 19.0 14.3 5.1 40 6.9 NW 19 41 10 22 - - 0.0
03/03:30pm 19.3 14.4 5.0 39 7.1 NW 20 37 11 20 - - 0.0
03/03:00pm 19.6 14.6 4.5 37 7.4 NW 20 43 11 23 - - 0.0
03/02:30pm 19.4 14.5 5.1 39 7.1 NW 20 39 11 21 - - 0.0
03/02:00pm 18.9 12.4 4.7 39 7.0 NW 28 50 15 27 - - 0.0
03/01:30pm 18.8 12.0 5.3 41 6.7 NNW 30 54 16 29 - - 0.0
03/01:03pm 18.5 12.1 5.0 41 6.6 NW 28 61 15 33 - - 0.0
03/01:00pm 18.6 12.9 5.1 41 6.7 NW 24 46 13 25 - - 0.0
03/12:30pm 18.0 11.5 4.9 42 6.4 NW 28 50 15 27 - - 0.0
03/12:29pm 17.9 11.4 4.8 42 6.4 NW 28 50 15 27 - - 0.0
03/12:00pm 18.4 13.7 5.3 42 6.5 NW 19 46 10 25 - - 0.0
03/11:30am 18.2 13.6 5.4 43 6.3 NW 19 50 10 27 - - 0.0
03/11:03am 17.3 10.8 4.6 43 6.1 NNW 28 50 15 27 - - 0.0
03/11:00am 17.6 12.0 5.2 44 6.1 NNW 24 50 13 27 - - 0.0
03/10:30am 16.8 11.7 4.2 43 6.0 NW 20 39 11 21 - - 0.0
03/10:00am 16.6 11.5 4.3 44 5.9 NW 20 44 11 24 - - 0.0
03/09:30am 15.9 10.5 4.6 47 5.4 NW 22 46 12 25 - - 0.0
03/09:00am 15.2 9.8 4.6 49 5.0 NW 22 44 12 24 - - 0.0
03/08:30am 14.5 9.5 4.5 51 4.7 NW 20 43 11 23 - - 0.0
03/08:00am 13.9 8.5 4.5 53 4.4 NW 22 43 12 23 - - 0.0
03/07:30am 13.5 8.7 4.4 54 4.3 NW 19 33 10 18 - - 0.0
03/07:00am 13.3 8.8 4.2 54 4.2 NNW 17 35 9 19 - - 0.0
03/06:30am 13.4 7.9 4.0 53 4.4 NW 22 39 12 21 - - 0.0
03/06:00am 13.3 8.4 3.9 53 4.3 NW 19 37 10 20 - - 0.0
03/05:30am 13.3 8.4 3.9 53 4.3 NW 19 35 10 19 - - 0.0
03/05:00am 13.2 7.7 3.8 53 4.3 NW 22 44 12 24 - - 0.0
03/04:30am 12.9 7.7 3.8 54 4.2 NW 20 37 11 20 - - 0.0
03/04:00am 12.5 8.2 3.5 54 4.1 NW 15 32 8 17 - - 0.0
03/03:30am 12.4 8.9 3.6 55 4.0 NW 11 24 6 13 - - 0.0
03/03:00am 12.8 8.5 3.5 53 4.2 NW 15 30 8 16 - - 0.0
03/02:30am 12.6 7.4 3.6 54 4.1 NNW 20 37 11 20 - - 0.0
03/02:00am 12.8 7.6 3.5 53 4.2 NW 20 37 11 20 - - 0.0
03/01:30am 12.8 6.8 3.5 53 4.2 NW 24 41 13 22 - - 0.0
03/01:13am 12.9 6.1 3.3 52 4.4 NNW 28 48 15 26 - - 0.0
03/01:00am 12.7 6.3 3.1 52 4.3 NNW 26 44 14 24 - - 0.0
03/12:30am 12.5 6.2 3.5 54 4.1 NW 26 52 14 28 - - 0.0
03/12:29am 12.5 5.8 3.5 54 4.1 NW 28 52 15 28 - - 0.0
03/12:00am 12.3 6.7 3.3 54 4.1 NW 22 39 12 21 - - 0.0
 
Date/Time
EST
Temp
°C
App
Temp
°C
Dew
Point
Rel
Hum
%
Delta-T
°C
Wind Press
QNH
hPa
Press
MSL
hPa
Rain
since 9 am
mm
Dir
 
Spd
km/h
Gust
km/h
Spd
kts
Gust
kts
02/11:30pm 12.3 6.6 3.0 53 4.2 NW 22 35 12 19 - - 0.0
02/11:00pm 11.9 6.8 3.2 55 3.9 NW 19 33 10 18 - - 0.0
02/10:30pm 11.7 7.0 3.2 56 3.8 NW 17 26 9 14 - - 0.0
02/10:00pm 11.7 8.1 3.2 56 3.8 NW 11 20 6 11 - - 0.0
02/09:30pm 11.7 7.8 3.2 56 3.8 NW 13 24 7 13 - - 0.0
02/09:00pm 11.8 7.1 3.1 55 3.9 NW 17 24 9 13 - - 0.0
02/08:30pm 11.6 6.9 2.9 55 3.9 NW 17 33 9 18 - - 0.0
02/08:00pm 11.5 7.1 2.8 55 3.9 NNW 15 24 8 13 - - 0.0
02/07:30pm 11.8 6.6 2.5 53 4.1 NNW 19 33 10 18 - - 0.0
02/07:00pm 11.7 6.5 2.7 54 4.0 NNW 19 32 10 17 - - 0.0
02/06:30pm 11.8 6.7 2.8 54 4.0 NNW 19 32 10 17 - - 0.0
02/06:00pm 11.9 7.1 2.6 53 4.1 NNW 17 28 9 15 - - 0.0
02/05:30pm 12.1 7.7 2.8 53 4.2 NNW 15 30 8 16 - - 0.0
02/05:00pm 13.0 9.0 3.1 51 4.5 NNW 13 20 7 11 - - 0.0
02/04:30pm 13.7 10.1 2.9 48 4.9 NW 11 19 6 10 - - 0.0
02/04:00pm 14.8 10.8 2.7 44 5.5 NW 13 24 7 13 - - 0.0
02/03:30pm 15.0 11.1 3.2 45 5.4 NW 13 32 7 17 - - 0.0
02/03:00pm 15.5 10.8 3.3 44 5.7 NW 17 33 9 18 - - 0.0
02/02:30pm 15.9 11.6 3.4 43 5.8 NW 15 26 8 14 - - 0.0
02/02:00pm 16.2 12.0 3.9 44 5.8 NW 15 28 8 15 - - 0.0
02/01:30pm 16.9 13.8 3.6 41 6.3 WNW 9 24 5 13 - - 0.0
02/01:00pm 15.8 13.4 4.2 46 5.5 W 6 11 3 6 - - 0.0
02/12:30pm 15.6 13.3 4.9 49 5.1 W 6 11 3 6 - - 0.0
02/12:00pm 15.1 12.7 4.2 48 5.1 WNW 6 11 3 6 - - 0.0
02/11:30am 13.6 11.0 3.4 50 4.7 WNW 6 15 3 8 - - 0.0
02/11:00am 14.2 11.5 3.9 50 4.8 WNW 7 9 4 5 - - 0.0
02/10:30am 13.6 11.0 4.2 53 4.4 NW 7 15 4 8 - - 0.0
02/10:00am 12.4 8.9 3.6 55 4.0 NNW 11 20 6 11 - - 0.0
02/09:30am 11.2 7.4 3.7 60 3.4 NNW 13 22 7 12 - - 0.0
02/09:00am 10.2 5.8 2.8 60 3.2 NNW 15 24 8 13 - - 1.2
02/08:30am 9.7 4.9 2.8 62 3.0 NNW 17 30 9 16 - - 1.2
02/08:00am 9.0 4.5 2.3 63 2.9 NNW 15 24 8 13 - - 1.2
02/07:30am 9.2 4.7 2.3 62 3.0 NW 15 28 8 15 - - 1.2
02/07:00am 9.5 5.4 2.4 61 3.1 NW 13 20 7 11 - - 1.2
02/06:30am 9.4 5.7 2.3 61 3.1 NW 11 19 6 10 - - 1.2
02/06:00am 9.7 5.9 1.6 57 3.4 NW 11 17 6 9 - - 1.2
02/05:30am 9.3 6.2 1.2 57 3.4 NW 7 11 4 6 - - 1.2
02/05:00am 9.1 6.0 1.3 58 3.3 NW 7 11 4 6 - - 1.2
02/04:30am 8.8 5.7 1.5 60 3.1 WNW 7 9 4 5 - - 1.2
02/04:00am 8.8 5.7 1.5 60 3.1 WNW 7 15 4 8 - - 1.2
02/03:30am 8.9 5.8 1.3 59 3.2 WNW 7 15 4 8 - - 1.2
02/03:00am 9.1 5.6 1.5 59 3.2 WNW 9 17 5 9 - - 1.2
02/02:30am 9.4 6.4 1.8 59 3.2 WNW 7 13 4 7 - - 1.2
02/02:00am 9.6 5.8 2.0 59 3.3 W 11 15 6 8 - - 1.2
02/01:30am 9.5 5.8 2.6 62 3.0 W 11 13 6 7 - - 1.2
02/01:00am 9.7 6.1 3.0 63 2.9 W 11 13 6 7 - - 1.2
02/12:30am 9.7 6.9 3.4 65 2.8 WNW 7 13 4 7 - - 1.2
02/12:00am 9.5 6.8 3.5 66 2.7 WNW 7 13 4 7 - - 1.2
 
Date/Time
EST
Temp
°C
App
Temp
°C
Dew
Point
Rel
Hum
%
Delta-T
°C
Wind Press
QNH
hPa
Press
MSL
hPa
Rain
since 9 am
mm
Dir
 
Spd
km/h
Gust
km/h
Spd
kts
Gust
kts
01/11:30pm 9.7 6.7 3.9 67 2.6 WNW 9 17 5 9 - - 1.2
01/11:00pm 9.7 5.9 3.9 67 2.6 WNW 13 22 7 12 - - 1.2
01/10:30pm 9.7 6.4 4.3 69 2.4 WNW 11 20 6 11 - - 1.2
01/10:00pm 9.5 6.6 4.7 72 2.2 WNW 9 17 5 9 - - 1.2
01/09:30pm 9.6 6.4 5.2 74 2.0 WNW 11 17 6 9 - - 1.2
01/09:00pm 9.3 7.0 5.9 79 1.6 WNW 7 13 4 7 - - 1.2
01/08:30pm 9.8 6.8 5.8 76 1.9 WNW 11 17 6 9 - - 1.2
01/08:00pm 9.4 6.0 5.9 79 1.6 W 13 15 7 8 - - 1.2
01/07:30pm 9.0 5.6 5.9 81 1.4 W 13 20 7 11 - - 1.2
01/07:00pm 9.4 6.1 6.5 82 1.4 W 13 26 7 14 - - 1.2
01/06:30pm 10.1 6.5 6.8 80 1.6 W 15 17 8 9 - - 1.2
01/06:00pm 9.6 6.1 7.2 85 1.2 W 15 20 8 11 - - 1.2
01/05:30pm 9.5 5.7 7.6 88 0.9 W 17 22 9 12 - - 1.2
01/05:00pm 9.5 6.8 8.9 96 0.3 W 13 30 7 16 - - 1.2
01/04:30pm 9.5 6.7 8.6 94 0.4 W 13 26 7 14 - - 0.8
01/04:00pm 10.8 6.2 8.0 83 1.4 WSW 22 44 12 24 - - 0.0
01/03:30pm 15.2 11.3 5.4 52 4.7 W 15 26 8 14 - - 0.0
01/03:00pm 16.1 11.7 4.5 46 5.5 W 17 32 9 17 - - 0.0
01/02:30pm 16.6 11.0 3.7 42 6.1 W 22 44 12 24 - - 0.0
01/02:00pm 16.8 11.8 3.8 42 6.2 WNW 19 32 10 17 - - 0.0
01/01:30pm 17.4 11.7 3.0 38 6.7 WNW 22 46 12 25 - - 0.0
01/01:00pm 17.1 10.6 2.7 38 6.7 WNW 26 50 14 27 - - 0.0
01/12:30pm 17.2 10.5 3.5 40 6.5 WNW 28 50 15 27 - - 0.0
01/12:01pm 17.4 10.8 4.0 41 6.4 WNW 28 57 15 31 - - 0.0
01/12:00pm 17.4 11.2 4.4 42 6.3 WNW 26 57 14 31 - - 0.0
01/11:30am 17.7 12.3 4.6 42 6.4 WNW 22 41 12 22 - - 0.0
01/11:00am 17.5 13.0 6.1 47 5.7 WNW 19 37 10 20 - - 0.0
01/10:30am 16.3 11.9 6.7 53 4.8 WNW 19 35 10 19 - - 0.0
01/10:00am 16.9 13.7 8.3 57 4.5 WNW 15 30 8 16 - - 0.0
01/09:30am 16.3 14.1 12.1 76 2.3 NW 15 35 8 19 - - 0.0
01/09:00am 16.6 14.9 12.6 77 2.2 NNW 13 24 7 13 - - 6.6
01/08:30am 16.5 15.4 11.9 74 2.6 NW 9 13 5 7 - - 6.6
01/08:00am 15.8 14.5 12.4 80 1.9 NW 11 15 6 8 - - 6.6
01/07:30am 14.9 14.2 13.3 90 0.9 NW 9 13 5 7 - - 6.6
01/07:00am 14.7 13.4 13.6 93 0.6 NNW 13 20 7 11 - - 6.6
01/06:30am 14.2 14.1 13.2 94 0.6 WNW 6 9 3 5 - - 5.6
01/06:00am 14.6 13.9 13.1 91 0.8 NW 9 13 5 7 - - 4.0
01/05:30am 15.0 12.7 12.9 87 1.2 NNW 17 28 9 15 - - 3.8
01/05:00am 15.6 12.8 11.2 75 2.4 NNW 17 26 9 14 - - 1.4
01/04:30am 19.0 16.5 9.8 55 5.0 N 13 24 7 13 - - 0.0
01/04:00am 17.5 15.8 9.7 60 4.2 NE 9 19 5 10 - - 0.0
01/03:30am 18.1 16.7 9.5 57 4.6 ENE 7 9 4 5 - - 0.0
01/03:00am 17.8 16.4 9.4 58 4.5 NE 7 20 4 11 - - 0.0
01/02:30am 17.8 16.1 9.7 59 4.3 NNE 9 17 5 9 - - 0.0
01/02:00am 17.6 16.5 10.0 61 4.1 ENE 6 11 3 6 - - 0.0
01/01:30am 18.3 17.2 10.7 61 4.2 N 7 13 4 7 - - 0.0
01/01:00am 17.9 16.8 10.0 60 4.3 NNE 6 13 3 7 - - 0.0
01/12:30am 17.7 16.6 10.1 61 4.1 NE 6 9 3 5 - - 0.0
01/12:00am 18.4 16.6 10.8 61 4.2 NNW 11 17 6 9 - - 0.0
 
Date/Time
EST
Temp
°C
App
Temp
°C
Dew
Point
Rel
Hum
%
Delta-T
°C
Wind Press
QNH
hPa
Press
MSL
hPa
Rain
since 9 am
mm
Dir
 
Spd
km/h
Gust
km/h
Spd
kts
Gust
kts
30/11:30pm 18.1 15.5 10.7 62 4.0 NNW 15 22 8 12 - - 0.0
30/11:00pm 18.6 16.3 10.4 59 4.5 NNW 13 26 7 14 - - 0.0

Other Formats:

Comma delimited format used in spreadsheet applications
http://www.bom.gov.au/fwo/IDV60801/IDV60801.94930.axf

JavaScript Object Notation format (JSON) in row-major order
http://www.bom.gov.au/fwo/IDV60801/IDV60801.94930.json